Nearby METAR Reports

 

NZWN - Wellington Intl, New Zealand
Distance from station: SSE 156km
Updated: Tue, 20-Nov-2018 5:00am NZDT
Light rain, Mostly cloudy
Light rain, Mostly cloudy
 Wind from S
Wind: S 22 km/h
Temperature: 9°C
Wind Chill: 6°C
Dew Point: 6°C
Humidity: 82%
Barometer: 1002 hPa
Summary: Light rain
Clouds: Mostly cloudy
Visibility: 10 km
Cloud details: Partly cloudy 701 m
Mostly cloudy 975 m
Mostly cloudy 1219 m
2018/11/19 16:00 NZWN 191600Z AUTO 18012KT 9999 -RA SCT023/// BKN032/// BKN040/// 09/06 Q1002 TEMPO 6000 SHRA
NZAA - Auckland Intl Ar, New Zealand
Distance from station: N 334km
Updated: Tue, 20-Nov-2018 4:30am NZDT
Clear
Clear
 Wind from NNW
Wind: NNW 7 km/h
Temperature: 9°C
Wind Chill: 8°C
Dew Point: 7°C
Humidity: 87%
Barometer: 1002 hPa
Clouds: Clear
Visibility: 10 km
2018/11/19 15:30 NZAA 191530Z AUTO 34004KT 9999 NCD 09/07 Q1002 NOSIG
 
NZWP - Whenuapai (nz-Af, New Zealand
Distance from station: N 359km
Updated: Thu, 08-Nov-2018 5:00pm NZDT
NOT Current
Nearby showers, Mostly cloudy
Nearby showers, Mostly cloudy
 Wind from W
Wind: W 19 km/h
Temperature: 20°C
Dew Point: 15°C
Humidity: 73%
Barometer: 1015 hPa
Summary: Nearby Showers
Clouds: Mostly cloudy
Cloud details: Partly cloudy 549 m
Mostly cloudy 671 m
2018/11/08 04:00 NZWP 080400Z 28010KT 20KM VCSH SCT018 BKN022 20/15 Q1015 TEMPO NOSIG
NZCH - Christchurch Int, New Zealand
Distance from station: SSW 412km
Updated: Tue, 20-Nov-2018 5:00am NZDT
Partly cloudy
Partly cloudy
 Wind from WNW
Wind: WNW 7 km/h
Temperature: 5°C
Wind Chill: 3°C
Dew Point: 4°C
Humidity: 93%
Barometer: 1004 hPa
Clouds: Partly cloudy
Visibility: 10 km
Cloud details: Partly cloudy 823 m
2018/11/19 16:00 NZCH 191600Z AUTO 30004KT 9999 SCT027/// 05/04 Q1004 NOSIG

Metar display script from Saratoga-Weather.org